Mekhanik Antonov — UBBH9 — position and weather

sailwx.info

Track history (hours):
 
Tides and Currents Weather Stations Pressure Air Temp Water Temp Dewpoint Dewpoint Depression Visibility Wind Speed Wind Dir Waves Ship Positions

Mekhanik Antonov

Last reported at 2018-Jun-14 06:21 UTC. Time now 2018-Jun-20 17:29 UTC.
Position N 45°48' E 036°57'.

Length 141 m; draft 2.5 m.

Type: Tanker. MMSI: 273351320.

Date/timePositionNaut miles runAvg speedWind from/ knotsBaromVisibWave heightAir tempDewpointWater temp
2018-Jun-14 06:21N 45°48' E 036°57'3 9.0
2018-Jun-14 05:59N 45°45' E 036°55'4 9.0
2018-Jun-14 05:30N 45°41' E 036°53'6 8.9
2018-Jun-14 04:48N 45°35' E 036°50'3 8.9
2018-Jun-14 04:30N 45°33' E 036°49'4 8.8
2018-Jun-14 04:00N 45°29' E 036°44'5 9.1
2018-Jun-14 03:30N 45°25' E 036°41'4 8.6
2018-Jun-14 03:00N 45°21' E 036°40'3 6.7
2018-Jun-14 02:30N 45°20' E 036°36'4 8.0
2018-Jun-14 02:00N 45°19' E 036°30'3 5.5
2018-Jun-14 01:29N 45°16' E 036°29'6 0.9
2018-Jun-13 18:26N 45°10' E 036°32'0 0.0
2018-Jun-13 17:33N 45°10' E 036°32'0 0.1
2018-Jun-13 17:29N 45°10' E 036°32'0 0.1
2018-Jun-13 16:58N 45°10' E 036°32'0 0.0
2018-Jun-13 16:27N 45°10' E 036°32'0 0.0
2018-Jun-13 15:57N 45°10' E 036°32'0 0.0
2018-Jun-13 15:30N 45°10' E 036°32'0 0.0
2018-Jun-13 14:20N 45°10' E 036°32'0 0.0
2018-Jun-13 13:46N 45°10' E 036°32'0 0.0
2018-Jun-13 13:28N 45°10' E 036°32'0 0.0
2018-Jun-13 13:00N 45°10' E 036°32'0 0.0
2018-Jun-13 12:28N 45°10' E 036°32'0 0.0
2018-Jun-13 11:57N 45°10' E 036°32'0 0.0
2018-Jun-13 11:21N 45°10' E 036°32'0 0.0
2018-Jun-13 11:00N 45°10' E 036°32'0 0.0
2018-Jun-13 10:27N 45°10' E 036°32'0 0.0
2018-Jun-13 10:00N 45°10' E 036°32'0 0.0
2018-Jun-13 08:58N 45°10' E 036°32'0 0.0
2018-Jun-13 06:16N 45°10' E 036°32'0 0.0
2018-Jun-13 05:46N 45°10' E 036°32'0 0.0
2018-Jun-13 05:16N 45°10' E 036°32'0 0.0
2018-Jun-13 04:25N 45°10' E 036°32'0 0.1
2018-Jun-13 03:57N 45°10' E 036°32'0 0.1
2018-Jun-13 03:25N 45°10' E 036°32'0 0.1
2018-Jun-13 02:34N 45°10' E 036°32'0 0.0
2018-Jun-13 02:22N 45°10' E 036°32'0 0.0
2018-Jun-13 01:51N 45°10' E 036°32'0 0.0
2018-Jun-13 01:22N 45°10' E 036°32'0 0.0
2018-Jun-13 00:59N 45°10' E 036°32'0 0.0
2018-Jun-13 00:23N 45°10' E 036°32'0 0.0
2018-Jun-12 23:54N 45°10' E 036°32'0 0.0
2018-Jun-12 23:24N 45°10' E 036°32'0 0.0
2018-Jun-12 16:34N 45°10' E 036°32'0 0.0
2018-Jun-12 15:38N 45°10' E 036°32'0 0.0
2018-Jun-12 15:24N 45°10' E 036°32'0 0.1
2018-Jun-12 14:58N 45°10' E 036°32'0 0.0
2018-Jun-12 14:29N 45°10' E 036°32'0 0.0
2018-Jun-12 13:56N 45°10' E 036°32'0 0.0
2018-Jun-12 13:25N 45°10' E 036°32'0 0.0
2018-Jun-12 12:58N 45°10' E 036°32'0 0.0
2018-Jun-12 12:29N 45°10' E 036°32'0 0.0
2018-Jun-12 11:55N 45°10' E 036°32'0 0.0
2018-Jun-12 11:29N 45°10' E 036°32'0 0.0
2018-Jun-12 11:00N 45°10' E 036°32'0 0.0
2018-Jun-12 10:30N 45°10' E 036°32'0 0.0
2018-Jun-12 09:59N 45°10' E 036°32'0 0.0
2018-Jun-12 09:24N 45°10' E 036°32'0 0.0
2018-Jun-12 08:59N 45°10' E 036°32'0 0.0
2018-Jun-12 08:27N 45°10' E 036°32'0 0.0
2018-Jun-12 07:57N 45°10' E 036°32'0 0.0
2018-Jun-12 07:29N 45°10' E 036°32'0 0.0
2018-Jun-12 06:58N 45°10' E 036°32'0 0.0
2018-Jun-12 04:29N 45°10' E 036°32'0 0.0
2018-Jun-12 03:49N 45°10' E 036°32'0 0.0
2018-Jun-12 03:28N 45°10' E 036°32'0 0.0
2018-Jun-12 02:57N 45°10' E 036°32'0 0.0
2018-Jun-12 02:22N 45°10' E 036°32'0 0.0
2018-Jun-12 01:56N 45°10' E 036°32'0 0.0
2018-Jun-11 17:24N 45°10' E 036°32'0 0.0
2018-Jun-11 16:58N 45°10' E 036°32'0 0.0
2018-Jun-11 16:27N 45°10' E 036°32'0 0.0
2018-Jun-11 15:53N 45°10' E 036°32'0 0.0
2018-Jun-11 15:25N 45°10' E 036°32'0 0.0
2018-Jun-11 14:59N 45°10' E 036°32'0 0.0
2018-Jun-11 14:18N 45°10' E 036°32'0 0.0
2018-Jun-11 13:17N 45°10' E 036°32'0 0.0
2018-Jun-11 12:58N 45°10' E 036°32'0 0.0
2018-Jun-11 12:27N 45°10' E 036°32'0 0.0
2018-Jun-11 11:58N 45°10' E 036°32'0 0.0
2018-Jun-11 11:30N 45°10' E 036°32'0 0.0
2018-Jun-11 10:45N 45°10' E 036°32'0 0.0
2018-Jun-11 10:30N 45°10' E 036°32'0 0.0
2018-Jun-11 09:15N 45°10' E 036°32'0 0.0
2018-Jun-11 08:55N 45°10' E 036°32'0 0.0
2018-Jun-11 08:30N 45°10' E 036°32'0 0.0
2018-Jun-11 07:21N 45°10' E 036°32'0 0.0
2018-Jun-10 17:10N 45°10' E 036°32'0 0.0
2018-Jun-10 16:59N 45°10' E 036°32'0 0.0
2018-Jun-10 15:05N 45°10' E 036°32'0 0.0
2018-Jun-10 14:34N 45°10' E 036°32'0 0.0
2018-Jun-10 14:30N 45°10' E 036°32'0 0.0
2018-Jun-10 11:46N 45°10' E 036°32'0 0.0
2018-Jun-10 11:28N 45°10' E 036°32'0 0.0
2018-Jun-10 10:51N 45°10' E 036°32'0 0.0
2018-Jun-10 10:27N 45°10' E 036°32'0 0.0
2018-Jun-10 10:00N 45°10' E 036°32'0 0.0
2018-Jun-10 09:30N 45°10' E 036°32'0 0.0
2018-Jun-10 08:58N 45°10' E 036°32'0 0.0
2018-Jun-10 08:26N 45°10' E 036°32'0 0.0
2018-Jun-10 07:54N 45°10' E 036°32'0 0.0
2018-Jun-10 07:30N 45°10' E 036°32'0 0.0
2018-Jun-10 06:59N 45°10' E 036°32'0 0.0
2018-Jun-10 06:05N 45°10' E 036°32'0 0.0
2018-Jun-10 05:59N 45°10' E 036°32'0 0.1
2018-Jun-10 05:18N 45°10' E 036°32'0 0.0
2018-Jun-10 04:42N 45°10' E 036°32'0 0.0
2018-Jun-10 04:28N 45°10' E 036°32'0 0.0
2018-Jun-10 03:56N 45°10' E 036°32'0 0.0
2018-Jun-10 03:25N 45°10' E 036°32'0 0.0
2018-Jun-10 02:53N 45°10' E 036°32'0 0.1
2018-Jun-10 02:29N 45°10' E 036°32'0 0.0
2018-Jun-10 01:42N 45°10' E 036°32'0 0.1
2018-Jun-10 01:28N 45°10' E 036°32'0 0.0
2018-Jun-09 23:27N 45°10' E 036°32'0 0.0
2018-Jun-09 22:58N 45°10' E 036°32'0 0.0
2018-Jun-09 21:31N 45°10' E 036°32'0 0.1
2018-Jun-09 20:20N 45°10' E 036°32'0 0.0
2018-Jun-09 19:47N 45°10' E 036°32'0 0.0
2018-Jun-09 19:29N 45°10' E 036°32'0 0.0
2018-Jun-09 18:44N 45°10' E 036°32'0 0.0
2018-Jun-09 17:25N 45°10' E 036°32'0 0.0
2018-Jun-09 16:59N 45°10' E 036°32'0 0.0
2018-Jun-09 16:19N 45°10' E 036°32'0 0.0
2018-Jun-09 15:58N 45°10' E 036°32'0 0.0
2018-Jun-09 14:59N 45°10' E 036°32'0 0.0
2018-Jun-09 14:20N 45°10' E 036°32'0 0.0
2018-Jun-09 13:57N 45°10' E 036°32'0 0.0
2018-Jun-09 13:28N 45°10' E 036°32'0 0.0
2018-Jun-09 12:52N 45°10' E 036°32'0 0.0
2018-Jun-09 12:26N 45°10' E 036°32'0 0.0
2018-Jun-09 11:55N 45°10' E 036°32'0 0.0
2018-Jun-09 11:25N 45°10' E 036°32'0 0.0
2018-Jun-09 10:59N 45°10' E 036°32'0 0.0
2018-Jun-09 10:30N 45°10' E 036°32'0 0.0
2018-Jun-09 09:59N 45°10' E 036°32'0 0.0
2018-Jun-09 09:28N 45°10' E 036°32'0 0.0
2018-Jun-09 09:00N 45°10' E 036°32'0 0.0
2018-Jun-09 08:26N 45°10' E 036°32'0 0.0
2018-Jun-09 07:54N 45°10' E 036°32'0 0.0
2018-Jun-09 07:28N 45°10' E 036°32'0 0.1
2018-Jun-09 06:56N 45°10' E 036°32'0 0.0
2018-Jun-09 05:54N 45°10' E 036°32'0 0.0
2018-Jun-09 02:58N 45°10' E 036°32'0 0.0
2018-Jun-08 23:39N 45°10' E 036°32'0 0.0
2018-Jun-08 23:25N 45°10' E 036°32'0 0.0
2018-Jun-08 23:01N 45°10' E 036°32'0 0.0
2018-Jun-08 22:18N 45°10' E 036°32'0 0.0
2018-Jun-08 21:48N 45°10' E 036°32'0 0.0
2018-Jun-08 16:18N 45°10' E 036°32'0 0.0
2018-Jun-08 15:54N 45°10' E 036°32'0 0.0
2018-Jun-08 14:10N 45°10' E 036°32'0 0.0
2018-Jun-08 13:50N 45°10' E 036°32'0 0.0
2018-Jun-08 13:20N 45°10' E 036°32'0 0.0
2018-Jun-08 12:59N 45°10' E 036°32'0 0.0
2018-Jun-08 12:22N 45°10' E 036°32'0 0.0
2018-Jun-08 11:55N 45°10' E 036°32'0 0.0
2018-Jun-08 11:25N 45°10' E 036°32'0 0.0
2018-Jun-08 10:28N 45°10' E 036°32'0 0.0
2018-Jun-08 09:59N 45°10' E 036°32'0 0.0
2018-Jun-08 05:47N 45°10' E 036°32'4 0.2
2018-Jun-07 05:09N 45°06' E 036°32'6 0.4
2018-Jun-06 13:07N 45°12' E 036°28'1 7.9
2018-Jun-06 13:00N 45°13' E 036°28'4 7.1
2018-Jun-06 12:29N 45°16' E 036°28'3 6.9
2018-Jun-06 11:59N 45°19' E 036°32'4 7.7
2018-Jun-06 11:30N 45°20' E 036°36'3 7.0
2018-Jun-06 11:00N 45°23' E 036°40'4 7.7
2018-Jun-06 10:30N 45°27' E 036°40'2 3.2
2018-Jun-06 10:00N 45°28' E 036°39'0 0.0
2018-Jun-06 09:29N 45°28' E 036°39'0 0.0
2018-Jun-06 08:51N 45°28' E 036°39'0 0.0
2018-Jun-06 08:29N 45°28' E 036°39'0 0.0
2018-Jun-06 07:59N 45°28' E 036°39'0 0.0
2018-Jun-06 07:30N 45°28' E 036°39'0 0.0
2018-Jun-06 07:00N 45°28' E 036°39'0 0.0
2018-Jun-06 06:26N 45°28' E 036°39'0 0.0
2018-Jun-06 05:58N 45°28' E 036°39'0 0.1
2018-Jun-06 05:27N 45°28' E 036°39'0 0.0
2018-Jun-06 04:58N 45°28' E 036°39'0 0.0
2018-Jun-06 04:28N 45°28' E 036°39'0 0.0
2018-Jun-06 03:59N 45°28' E 036°39'0 0.0
2018-Jun-06 03:28N 45°28' E 036°39'0 0.0
2018-Jun-06 02:59N 45°28' E 036°39'0 0.0
2018-Jun-06 02:26N 45°28' E 036°39'0 0.0
2018-Jun-06 01:58N 45°28' E 036°39'0 0.0
2018-Jun-06 01:28N 45°28' E 036°39'0 0.0
2018-Jun-06 00:59N 45°28' E 036°39'0 0.0
2018-Jun-06 00:26N 45°28' E 036°39'0 0.0
2018-Jun-05 23:56N 45°28' E 036°39'0 0.0
2018-Jun-05 23:29N 45°28' E 036°39'0 0.0
2018-Jun-05 22:58N 45°28' E 036°39'0 0.0
2018-Jun-05 22:22N 45°28' E 036°39'0 0.0
2018-Jun-05 21:58N 45°28' E 036°39'0 0.0
2018-Jun-05 20:31N 45°28' E 036°39'0 0.0
2018-Jun-05 20:16N 45°28' E 036°39'0 0.0
2018-Jun-05 19:53N 45°28' E 036°39'0 0.0
2018-Jun-05 19:29N 45°28' E 036°39'0 0.0
2018-Jun-05 18:34N 45°28' E 036°39'0 0.0
2018-Jun-05 18:26N 45°28' E 036°39'0 0.0
2018-Jun-05 17:31N 45°28' E 036°39'0 0.1
2018-Jun-05 17:04N 45°28' E 036°39'0 0.1
2018-Jun-05 16:58N 45°28' E 036°39'0 0.0
2018-Jun-05 16:27N 45°28' E 036°39'0 0.0
2018-Jun-05 15:53N 45°28' E 036°39'0 0.0
2018-Jun-05 15:29N 45°28' E 036°39'0 0.0
2018-Jun-05 15:00N 45°28' E 036°39'0 0.0
2018-Jun-05 14:27N 45°28' E 036°39'0 0.0
2018-Jun-05 13:54N 45°28' E 036°39'0 0.0
2018-Jun-05 13:29N 45°28' E 036°39'0 0.0
2018-Jun-05 12:58N 45°28' E 036°39'1 2.2
2018-Jun-05 12:30N 45°29' E 036°40'4 7.6
2018-Jun-05 11:58N 45°32' E 036°44'  
Track history (hours):
 
Tides and Currents Weather Stations Pressure Air Temp Water Temp Dewpoint Dewpoint Depression Visibility Wind Speed Wind Dir Waves Ship Positions

Mekhanik Antonov

Last reported at 2018-Jun-14 06:21 UTC. Time now 2018-Jun-20 17:29 UTC.
Position N 45°48' E 036°57'.

Length 141 m; draft 2.5 m.

Type: Tanker. MMSI: 273351320.

Date/timePositionNaut miles runAvg speedWind from/ knotsBaromVisibWave heightAir tempDewpointWater temp
2018-Jun-14 06:21N 45°48' E 036°57'3 9.0
2018-Jun-14 05:59N 45°45' E 036°55'4 9.0
2018-Jun-14 05:30N 45°41' E 036°53'6 8.9
2018-Jun-14 04:48N 45°35' E 036°50'3 8.9
2018-Jun-14 04:30N 45°33' E 036°49'4 8.8
2018-Jun-14 04:00N 45°29' E 036°44'5 9.1
2018-Jun-14 03:30N 45°25' E 036°41'4 8.6
2018-Jun-14 03:00N 45°21' E 036°40'3 6.7
2018-Jun-14 02:30N 45°20' E 036°36'4 8.0
2018-Jun-14 02:00N 45°19' E 036°30'3 5.5
2018-Jun-14 01:29N 45°16' E 036°29'6 0.9
2018-Jun-13 18:26N 45°10' E 036°32'0 0.0
2018-Jun-13 17:33N 45°10' E 036°32'0 0.1
2018-Jun-13 17:29N 45°10' E 036°32'0 0.1
2018-Jun-13 16:58N 45°10' E 036°32'0 0.0
2018-Jun-13 16:27N 45°10' E 036°32'0 0.0
2018-Jun-13 15:57N 45°10' E 036°32'0 0.0
2018-Jun-13 15:30N 45°10' E 036°32'0 0.0
2018-Jun-13 14:20N 45°10' E 036°32'0 0.0
2018-Jun-13 13:46N 45°10' E 036°32'0 0.0
2018-Jun-13 13:28N 45°10' E 036°32'0 0.0
2018-Jun-13 13:00N 45°10' E 036°32'0 0.0
2018-Jun-13 12:28N 45°10' E 036°32'0 0.0
2018-Jun-13 11:57N 45°10' E 036°32'0 0.0
2018-Jun-13 11:21N 45°10' E 036°32'0 0.0
2018-Jun-13 11:00N 45°10' E 036°32'0 0.0
2018-Jun-13 10:27N 45°10' E 036°32'0 0.0
2018-Jun-13 10:00N 45°10' E 036°32'0 0.0
2018-Jun-13 08:58N 45°10' E 036°32'0 0.0
2018-Jun-13 06:16N 45°10' E 036°32'0 0.0
2018-Jun-13 05:46N 45°10' E 036°32'0 0.0
2018-Jun-13 05:16N 45°10' E 036°32'0 0.0
2018-Jun-13 04:25N 45°10' E 036°32'0 0.1
2018-Jun-13 03:57N 45°10' E 036°32'0 0.1
2018-Jun-13 03:25N 45°10' E 036°32'0 0.1
2018-Jun-13 02:34N 45°10' E 036°32'0 0.0
2018-Jun-13 02:22N 45°10' E 036°32'0 0.0
2018-Jun-13 01:51N 45°10' E 036°32'0 0.0
2018-Jun-13 01:22N 45°10' E 036°32'0 0.0
2018-Jun-13 00:59N 45°10' E 036°32'0 0.0
2018-Jun-13 00:23N 45°10' E 036°32'0 0.0
2018-Jun-12 23:54N 45°10' E 036°32'0 0.0
2018-Jun-12 23:24N 45°10' E 036°32'0 0.0
2018-Jun-12 16:34N 45°10' E 036°32'0 0.0
2018-Jun-12 15:38N 45°10' E 036°32'0 0.0
2018-Jun-12 15:24N 45°10' E 036°32'0 0.1
2018-Jun-12 14:58N 45°10' E 036°32'0 0.0
2018-Jun-12 14:29N 45°10' E 036°32'0 0.0
2018-Jun-12 13:56N 45°10' E 036°32'0 0.0
2018-Jun-12 13:25N 45°10' E 036°32'0 0.0
2018-Jun-12 12:58N 45°10' E 036°32'0 0.0
2018-Jun-12 12:29N 45°10' E 036°32'0 0.0
2018-Jun-12 11:55N 45°10' E 036°32'0 0.0
2018-Jun-12 11:29N 45°10' E 036°32'0 0.0
2018-Jun-12 11:00N 45°10' E 036°32'0 0.0
2018-Jun-12 10:30N 45°10' E 036°32'0 0.0
2018-Jun-12 09:59N 45°10' E 036°32'0 0.0
2018-Jun-12 09:24N 45°10' E 036°32'0 0.0
2018-Jun-12 08:59N 45°10' E 036°32'0 0.0
2018-Jun-12 08:27N 45°10' E 036°32'0 0.0
2018-Jun-12 07:57N 45°10' E 036°32'0 0.0
2018-Jun-12 07:29N 45°10' E 036°32'0 0.0
2018-Jun-12 06:58N 45°10' E 036°32'0 0.0
2018-Jun-12 04:29N 45°10' E 036°32'0 0.0
2018-Jun-12 03:49N 45°10' E 036°32'0 0.0
2018-Jun-12 03:28N 45°10' E 036°32'0 0.0
2018-Jun-12 02:57N 45°10' E 036°32'0 0.0
2018-Jun-12 02:22N 45°10' E 036°32'0 0.0
2018-Jun-12 01:56N 45°10' E 036°32'0 0.0
2018-Jun-11 17:24N 45°10' E 036°32'0 0.0
2018-Jun-11 16:58N 45°10' E 036°32'0 0.0
2018-Jun-11 16:27N 45°10' E 036°32'0 0.0
2018-Jun-11 15:53N 45°10' E 036°32'0 0.0
2018-Jun-11 15:25N 45°10' E 036°32'0 0.0
2018-Jun-11 14:59N 45°10' E 036°32'0 0.0
2018-Jun-11 14:18N 45°10' E 036°32'0 0.0
2018-Jun-11 13:17N 45°10' E 036°32'0 0.0
2018-Jun-11 12:58N 45°10' E 036°32'0 0.0
2018-Jun-11 12:27N 45°10' E 036°32'0 0.0
2018-Jun-11 11:58N 45°10' E 036°32'0 0.0
2018-Jun-11 11:30N 45°10' E 036°32'0 0.0
2018-Jun-11 10:45N 45°10' E 036°32'0 0.0
2018-Jun-11 10:30N 45°10' E 036°32'0 0.0
2018-Jun-11 09:15N 45°10' E 036°32'0 0.0
2018-Jun-11 08:55N 45°10' E 036°32'0 0.0
2018-Jun-11 08:30N 45°10' E 036°32'0 0.0
2018-Jun-11 07:21N 45°10' E 036°32'0 0.0
2018-Jun-10 17:10N 45°10' E 036°32'0 0.0
2018-Jun-10 16:59N 45°10' E 036°32'0 0.0
2018-Jun-10 15:05N 45°10' E 036°32'0 0.0
2018-Jun-10 14:34N 45°10' E 036°32'0 0.0
2018-Jun-10 14:30N 45°10' E 036°32'0 0.0
2018-Jun-10 11:46N 45°10' E 036°32'0 0.0
2018-Jun-10 11:28N 45°10' E 036°32'0 0.0
2018-Jun-10 10:51N 45°10' E 036°32'0 0.0
2018-Jun-10 10:27N 45°10' E 036°32'0 0.0
2018-Jun-10 10:00N 45°10' E 036°32'0 0.0
2018-Jun-10 09:30N 45°10' E 036°32'0 0.0
2018-Jun-10 08:58N 45°10' E 036°32'0 0.0
2018-Jun-10 08:26N 45°10' E 036°32'0 0.0
2018-Jun-10 07:54N 45°10' E 036°32'0 0.0
2018-Jun-10 07:30N 45°10' E 036°32'0 0.0
2018-Jun-10 06:59N 45°10' E 036°32'0 0.0
2018-Jun-10 06:05N 45°10' E 036°32'0 0.0
2018-Jun-10 05:59N 45°10' E 036°32'0 0.1
2018-Jun-10 05:18N 45°10' E 036°32'0 0.0
2018-Jun-10 04:42N 45°10' E 036°32'0 0.0
2018-Jun-10 04:28N 45°10' E 036°32'0 0.0
2018-Jun-10 03:56N 45°10' E 036°32'0 0.0
2018-Jun-10 03:25N 45°10' E 036°32'0 0.0
2018-Jun-10 02:53N 45°10' E 036°32'0 0.1
2018-Jun-10 02:29N 45°10' E 036°32'0 0.0
2018-Jun-10 01:42N 45°10' E 036°32'0 0.1
2018-Jun-10 01:28N 45°10' E 036°32'0 0.0
2018-Jun-09 23:27N 45°10' E 036°32'0 0.0
2018-Jun-09 22:58N 45°10' E 036°32'0 0.0
2018-Jun-09 21:31N 45°10' E 036°32'0 0.1
2018-Jun-09 20:20N 45°10' E 036°32'0 0.0
2018-Jun-09 19:47N 45°10' E 036°32'0 0.0
2018-Jun-09 19:29N 45°10' E 036°32'0 0.0
2018-Jun-09 18:44N 45°10' E 036°32'0 0.0
2018-Jun-09 17:25N 45°10' E 036°32'0 0.0
2018-Jun-09 16:59N 45°10' E 036°32'0 0.0
2018-Jun-09 16:19N 45°10' E 036°32'0 0.0
2018-Jun-09 15:58N 45°10' E 036°32'0 0.0
2018-Jun-09 14:59N 45°10' E 036°32'0 0.0
2018-Jun-09 14:20N 45°10' E 036°32'0 0.0
2018-Jun-09 13:57N 45°10' E 036°32'0 0.0
2018-Jun-09 13:28N 45°10' E 036°32'0 0.0
2018-Jun-09 12:52N 45°10' E 036°32'0 0.0
2018-Jun-09 12:26N 45°10' E 036°32'0 0.0
2018-Jun-09 11:55N 45°10' E 036°32'0 0.0
2018-Jun-09 11:25N 45°10' E 036°32'0 0.0
2018-Jun-09 10:59N 45°10' E 036°32'0 0.0
2018-Jun-09 10:30N 45°10' E 036°32'0 0.0
2018-Jun-09 09:59N 45°10' E 036°32'0 0.0
2018-Jun-09 09:28N 45°10' E 036°32'0 0.0
2018-Jun-09 09:00N 45°10' E 036°32'0 0.0
2018-Jun-09 08:26N 45°10' E 036°32'0 0.0
2018-Jun-09 07:54N 45°10' E 036°32'0 0.0
2018-Jun-09 07:28N 45°10' E 036°32'0 0.1
2018-Jun-09 06:56N 45°10' E 036°32'0 0.0
2018-Jun-09 05:54N 45°10' E 036°32'0 0.0
2018-Jun-09 02:58N 45°10' E 036°32'0 0.0
2018-Jun-08 23:39N 45°10' E 036°32'0 0.0
2018-Jun-08 23:25N 45°10' E 036°32'0 0.0
2018-Jun-08 23:01N 45°10' E 036°32'0 0.0
2018-Jun-08 22:18N 45°10' E 036°32'0 0.0
2018-Jun-08 21:48N 45°10' E 036°32'0 0.0
2018-Jun-08 16:18N 45°10' E 036°32'0 0.0
2018-Jun-08 15:54N 45°10' E 036°32'0 0.0
2018-Jun-08 14:10N 45°10' E 036°32'0 0.0
2018-Jun-08 13:50N 45°10' E 036°32'0 0.0
2018-Jun-08 13:20N 45°10' E 036°32'0 0.0
2018-Jun-08 12:59N 45°10' E 036°32'0 0.0
2018-Jun-08 12:22N 45°10' E 036°32'0 0.0
2018-Jun-08 11:55N 45°10' E 036°32'0 0.0
2018-Jun-08 11:25N 45°10' E 036°32'0 0.0
2018-Jun-08 10:28N 45°10' E 036°32'0 0.0
2018-Jun-08 09:59N 45°10' E 036°32'0 0.0
2018-Jun-08 05:47N 45°10' E 036°32'4 0.2
2018-Jun-07 05:09N 45°06' E 036°32'6 0.4
2018-Jun-06 13:07N 45°12' E 036°28'1 7.9
2018-Jun-06 13:00N 45°13' E 036°28'4 7.1
2018-Jun-06 12:29N 45°16' E 036°28'3 6.9
2018-Jun-06 11:59N 45°19' E 036°32'4 7.7
2018-Jun-06 11:30N 45°20' E 036°36'3 7.0
2018-Jun-06 11:00N 45°23' E 036°40'4 7.7
2018-Jun-06 10:30N 45°27' E 036°40'2 3.2
2018-Jun-06 10:00N 45°28' E 036°39'0 0.0
2018-Jun-06 09:29N 45°28' E 036°39'0 0.0
2018-Jun-06 08:51N 45°28' E 036°39'0 0.0
2018-Jun-06 08:29N 45°28' E 036°39'0 0.0
2018-Jun-06 07:59N 45°28' E 036°39'0 0.0
2018-Jun-06 07:30N 45°28' E 036°39'0 0.0
2018-Jun-06 07:00N 45°28' E 036°39'0 0.0
2018-Jun-06 06:26N 45°28' E 036°39'0 0.0
2018-Jun-06 05:58N 45°28' E 036°39'0 0.1
2018-Jun-06 05:27N 45°28' E 036°39'0 0.0
2018-Jun-06 04:58N 45°28' E 036°39'0 0.0
2018-Jun-06 04:28N 45°28' E 036°39'0 0.0
2018-Jun-06 03:59N 45°28' E 036°39'0 0.0
2018-Jun-06 03:28N 45°28' E 036°39'0 0.0
2018-Jun-06 02:59N 45°28' E 036°39'0 0.0
2018-Jun-06 02:26N 45°28' E 036°39'0 0.0
2018-Jun-06 01:58N 45°28' E 036°39'0 0.0
2018-Jun-06 01:28N 45°28' E 036°39'0 0.0
2018-Jun-06 00:59N 45°28' E 036°39'0 0.0
2018-Jun-06 00:26N 45°28' E 036°39'0 0.0
2018-Jun-05 23:56N 45°28' E 036°39'0 0.0
2018-Jun-05 23:29N 45°28' E 036°39'0 0.0
2018-Jun-05 22:58N 45°28' E 036°39'0 0.0
2018-Jun-05 22:22N 45°28' E 036°39'0 0.0
2018-Jun-05 21:58N 45°28' E 036°39'0 0.0
2018-Jun-05 20:31N 45°28' E 036°39'0 0.0
2018-Jun-05 20:16N 45°28' E 036°39'0 0.0
2018-Jun-05 19:53N 45°28' E 036°39'0 0.0
2018-Jun-05 19:29N 45°28' E 036°39'0 0.0
2018-Jun-05 18:34N 45°28' E 036°39'0 0.0
2018-Jun-05 18:26N 45°28' E 036°39'0 0.0
2018-Jun-05 17:31N 45°28' E 036°39'0 0.1
2018-Jun-05 17:04N 45°28' E 036°39'0 0.1
2018-Jun-05 16:58N 45°28' E 036°39'0 0.0
2018-Jun-05 16:27N 45°28' E 036°39'0 0.0
2018-Jun-05 15:53N 45°28' E 036°39'0 0.0
2018-Jun-05 15:29N 45°28' E 036°39'0 0.0
2018-Jun-05 15:00N 45°28' E 036°39'0 0.0
2018-Jun-05 14:27N 45°28' E 036°39'0 0.0
2018-Jun-05 13:54N 45°28' E 036°39'0 0.0
2018-Jun-05 13:29N 45°28' E 036°39'0 0.0
2018-Jun-05 12:58N 45°28' E 036°39'1 2.2
2018-Jun-05 12:30N 45°29' E 036°40'4 7.6
2018-Jun-05 11:58N 45°32' E 036°44'  

Dump ship's entire track history